Time;durP1;ratioP1;P1;durP2;ratioP2;P2;SDS_P1;SDS_P2;PMS_P1;PMS_P2;Temp;Humidity;BMP_temperature;BMP_pressure;BME280_temperature;BME280_humidity;BME280_pressure;Samples;Min_cycle;Max_cycle;Signal;HPM_P1;HPM_P2
2023/08/11 00:00:22;;;;;;;8.70;1.30;;;;;;;13.18;78.63;100798.73;110364;1277;22260;-81
2023/08/11 00:03:12;;;;;;;8.90;1.70;;;;;;;13.15;78.77;100807.14;110410;1276;22166;-81
2023/08/11 00:05:43;;;;;;;9.90;1.80;;;;;;;13.10;78.92;100802.68;110358;1276;22823;-81
2023/08/11 00:08:14;;;;;;;7.50;1.60;;;;;;;13.09;78.78;100803.93;110360;1276;22162;-81
2023/08/11 00:10:45;;;;;;;9.70;1.40;;;;;;;13.10;78.86;100801.55;110318;1276;22170;-81
2023/08/11 00:13:16;;;;;;;7.10;1.30;;;;;;;13.08;79.00;100796.59;110379;1276;22347;-81
2023/08/11 00:15:47;;;;;;;7.00;1.50;;;;;;;13.05;78.92;100795.55;110399;1276;22305;-80
2023/08/11 00:18:18;;;;;;;9.00;1.70;;;;;;;13.02;78.96;100797.70;110401;1276;22166;-81
2023/08/11 00:20:49;;;;;;;8.70;1.50;;;;;;;12.99;79.10;100797.16;110359;1276;22697;-81
2023/08/11 00:23:20;;;;;;;8.00;1.50;;;;;;;12.94;79.06;100803.48;110396;1276;22250;-80
2023/08/11 00:25:51;;;;;;;8.50;1.50;;;;;;;12.90;79.20;100806.61;110386;1277;23073;-81
2023/08/11 00:28:22;;;;;;;7.60;1.60;;;;;;;12.85;79.31;100809.67;110380;1276;22129;-81
2023/08/11 00:30:53;;;;;;;10.50;1.40;;;;;;;12.80;79.49;100815.45;110368;1272;22176;-81
2023/08/11 00:33:25;;;;;;;6.70;1.40;;;;;;;12.68;79.92;100818.83;110358;1267;22346;-80
2023/08/11 00:35:55;;;;;;;8.20;1.20;;;;;;;12.54;80.54;100818.05;110401;1277;22216;-81
2023/08/11 00:38:38;;;;;;;5.90;1.30;;;;;;;12.48;80.81;100816.67;110339;1277;22238;-80
2023/08/11 00:41:09;;;;;;;4.80;1.30;;;;;;;12.46;80.97;100817.79;110350;1276;22166;-81
2023/08/11 00:43:40;;;;;;;6.10;1.50;;;;;;;12.46;81.28;100821.43;110400;1276;22190;-81
2023/08/11 00:46:13;;;;;;;4.60;1.60;;;;;;;12.43;81.58;100820.83;110380;1276;22136;-81
2023/08/11 00:48:44;;;;;;;10.40;1.70;;;;;;;12.37;81.78;100824.04;110382;1276;23302;-80
2023/08/11 00:51:18;;;;;;;7.10;1.40;;;;;;;12.36;81.90;100824.34;110384;1276;23240;-80
2023/08/11 00:53:50;;;;;;;5.40;1.30;;;;;;;12.37;81.99;100821.71;110329;1276;22217;-80
2023/08/11 00:56:23;;;;;;;6.00;1.40;;;;;;;12.39;82.01;100822.27;110368;1270;23068;-80
2023/08/11 00:58:54;;;;;;;5.80;1.30;;;;;;;12.42;81.82;100823.13;110381;1276;22209;-81
2023/08/11 01:01:25;;;;;;;6.90;1.60;;;;;;;12.45;81.95;100823.40;110358;1276;22400;-80
2023/08/11 01:03:57;;;;;;;8.60;1.20;;;;;;;12.44;82.11;100821.19;110401;1276;22143;-81
2023/08/11 01:06:38;;;;;;;7.90;1.20;;;;;;;12.42;81.94;100824.60;110389;1276;22318;-81
2023/08/11 01:09:19;;;;;;;6.80;1.20;;;;;;;12.39;82.23;100825.88;110370;1276;22203;-80
2023/08/11 01:12:02;;;;;;;9.50;1.70;;;;;;;12.34;82.37;100820.89;110308;1275;22610;-80
2023/08/11 01:14:42;;;;;;;9.40;1.60;;;;;;;12.35;82.20;100818.27;110367;1276;22381;-81
2023/08/11 01:17:16;;;;;;;8.70;1.30;;;;;;;12.35;81.97;100821.31;110350;1276;22124;-80
2023/08/11 01:19:48;;;;;;;6.40;1.40;;;;;;;12.33;81.98;100812.27;110360;1277;22281;-81
2023/08/11 01:22:24;;;;;;;7.20;1.50;;;;;;;12.33;82.04;100812.46;110377;1276;22189;-80
2023/08/11 01:24:55;;;;;;;8.30;1.50;;;;;;;12.34;81.94;100812.33;110172;1276;22307;-81
2023/08/11 01:27:26;;;;;;;8.90;1.70;;;;;;;12.32;81.83;100812.95;110339;1276;23100;-80
2023/08/11 01:29:56;;;;;;;5.10;1.00;;;;;;;12.30;81.96;100809.85;110367;1264;22210;-81
2023/08/11 01:32:27;;;;;;;8.10;1.60;;;;;;;12.27;82.06;100809.48;110367;1264;22153;-80
2023/08/11 01:34:58;;;;;;;7.00;1.50;;;;;;;12.23;82.05;100812.91;110381;1273;22142;-81
2023/08/11 01:37:29;;;;;;;4.80;1.30;;;;;;;12.17;82.07;100807.61;110372;1276;22805;-81
2023/08/11 01:39:59;;;;;;;7.50;1.50;;;;;;;12.11;82.13;100808.79;110346;1276;22219;-81
2023/08/11 01:42:30;;;;;;;6.10;1.30;;;;;;;12.08;82.22;100809.64;110342;1276;22646;-81
2023/08/11 01:45:01;;;;;;;8.40;1.40;;;;;;;12.07;82.18;100809.96;110397;1276;22325;-81
2023/08/11 01:47:32;;;;;;;5.60;1.30;;;;;;;12.01;82.11;100805.68;110368;1276;22376;-80
2023/08/11 01:50:04;;;;;;;5.20;1.30;;;;;;;11.99;82.12;100802.98;110353;1276;22435;-80
2023/08/11 01:52:37;;;;;;;8.00;1.70;;;;;;;11.95;82.13;100804.72;110356;1276;22204;-80
2023/08/11 01:55:10;;;;;;;4.90;1.20;;;;;;;11.89;82.22;100810.03;110356;1276;22384;-80
2023/08/11 01:57:41;;;;;;;8.40;1.40;;;;;;;11.85;82.20;100804.57;110349;1270;22230;-81
2023/08/11 02:00:13;;;;;;;6.50;1.40;;;;;;;11.84;82.22;100807.48;110381;1265;22201;-80
2023/08/11 02:02:45;;;;;;;9.10;1.60;;;;;;;11.83;82.45;100807.86;110388;1276;22289;-81
2023/08/11 02:05:16;;;;;;;13.20;2.20;;;;;;;11.82;82.47;100806.97;110361;1276;22141;-81
2023/08/11 02:07:47;;;;;;;8.80;1.80;;;;;;;11.81;82.59;100811.33;110287;1276;22933;-80
2023/08/11 02:10:18;;;;;;;8.50;1.50;;;;;;;11.80;82.78;100806.66;110344;1276;22707;-80
2023/08/11 02:12:49;;;;;;;8.60;1.50;;;;;;;11.80;82.80;100808.09;110356;1276;22171;-81
2023/08/11 02:15:20;;;;;;;10.20;1.40;;;;;;;11.79;82.81;100806.40;110383;1276;22207;-81
2023/08/11 02:17:51;;;;;;;11.30;1.70;;;;;;;11.76;82.83;100808.52;110365;1276;22179;-81
2023/08/11 02:20:22;;;;;;;9.10;1.50;;;;;;;11.74;82.89;100813.60;110374;1276;22516;-81
2023/08/11 02:22:53;;;;;;;9.80;1.90;;;;;;;11.69;83.32;100815.02;110378;1276;22793;-80
2023/08/11 02:25:25;;;;;;;12.20;1.50;;;;;;;11.66;83.30;100813.18;110362;1276;22331;-81
2023/08/11 02:27:56;;;;;;;8.90;1.80;;;;;;;11.60;83.21;100817.84;110333;1276;22906;-81
2023/08/11 02:30:29;;;;;;;5.90;1.30;;;;;;;11.54;83.48;100816.63;110362;1276;22328;-81
2023/08/11 02:33:00;;;;;;;12.30;1.50;;;;;;;11.48;83.45;100817.52;106244;1276;5414748;-80
2023/08/11 02:35:31;;;;;;;6.30;1.30;;;;;;;11.44;83.28;100815.89;110453;1276;23398;-81
2023/08/11 02:38:02;;;;;;;5.40;1.40;;;;;;;11.41;83.32;100816.84;110391;1276;22242;-81
2023/08/11 02:40:35;;;;;;;9.20;1.50;;;;;;;11.38;83.42;100822.22;110332;1277;22168;-80
2023/08/11 02:43:07;;;;;;;8.60;1.50;;;;;;;11.34;83.35;100822.10;110363;1276;22241;-81
2023/08/11 02:45:37;;;;;;;9.80;2.10;;;;;;;11.30;83.39;100818.67;110347;1266;22255;-81
2023/08/11 02:48:08;;;;;;;6.80;1.30;;;;;;;11.29;83.47;100817.52;110363;1262;22163;-81
2023/08/11 02:50:39;;;;;;;6.50;1.40;;;;;;;11.28;83.51;100818.95;110325;1270;22156;-81
2023/08/11 02:53:10;;;;;;;9.20;1.50;;;;;;;11.25;83.55;100824.38;110346;1276;22234;-81
2023/08/11 02:55:40;;;;;;;7.50;1.30;;;;;;;11.23;83.62;100824.52;110368;1276;22143;-81
2023/08/11 02:58:12;;;;;;;9.30;1.50;;;;;;;11.22;83.64;100826.23;110326;1276;22218;-81
2023/08/11 03:00:43;;;;;;;7.60;2.10;;;;;;;11.18;83.71;100825.77;110312;1276;22137;-81
2023/08/11 03:03:13;;;;;;;11.40;1.70;;;;;;;11.19;83.82;100825.11;110387;1276;22178;-81
2023/08/11 03:05:45;;;;;;;6.90;1.50;;;;;;;11.18;83.88;100823.58;108762;1276;22646;-80
2023/08/11 03:08:16;;;;;;;13.00;1.80;;;;;;;11.13;83.98;100829.14;108698;1276;22717;-80
2023/08/11 03:10:47;;;;;;;7.60;1.40;;;;;;;11.11;83.91;100833.47;108653;1276;25287;-80
2023/08/11 03:13:18;;;;;;;8.40;1.70;;;;;;;11.11;84.02;100830.05;108787;1276;22548;-80
2023/08/11 03:15:49;;;;;;;7.60;1.70;;;;;;;11.07;84.07;100828.93;108797;1276;22639;-82
2023/08/11 03:18:19;;;;;;;8.30;1.60;;;;;;;11.05;84.02;100826.99;108828;1276;22624;-81
2023/08/11 03:20:52;;;;;;;11.70;2.50;;;;;;;11.02;84.06;100830.14;108829;1276;22543;-81
2023/08/11 03:23:23;;;;;;;7.80;1.70;;;;;;;10.97;84.27;100831.05;108672;1276;25300;-81
2023/08/11 03:25:54;;;;;;;7.70;1.40;;;;;;;10.96;84.48;100832.30;108630;1276;22521;-82
2023/08/11 03:28:25;;;;;;;13.10;2.20;;;;;;;10.94;84.38;100831.47;108591;1276;24307;-82
2023/08/11 03:30:56;;;;;;;10.30;1.70;;;;;;;10.92;84.38;100833.16;108581;1276;23366;-81
2023/08/11 03:33:27;;;;;;;6.50;1.30;;;;;;;10.92;84.42;100826.45;108668;1276;23461;-82
2023/08/11 03:35:58;;;;;;;9.00;1.70;;;;;;;10.89;84.37;100831.51;108529;1262;23942;-82
2023/08/11 03:38:29;;;;;;;7.70;1.20;;;;;;;10.86;84.63;100832.84;108545;1276;22535;-82
2023/08/11 03:40:59;;;;;;;8.50;1.50;;;;;;;10.83;84.68;100832.13;108617;1267;22755;-81
2023/08/11 03:43:30;;;;;;;11.20;1.40;;;;;;;10.81;84.69;100830.20;108652;1276;22517;-82
2023/08/11 03:46:01;;;;;;;7.40;1.60;;;;;;;10.80;84.65;100828.23;108624;1276;22544;-82
2023/08/11 03:48:31;;;;;;;7.80;1.40;;;;;;;10.77;84.65;100826.89;108595;1276;23650;-82
2023/08/11 03:51:03;;;;;;;10.30;1.40;;;;;;;10.73;84.76;100822.98;108672;1276;22481;-82
2023/08/11 03:53:35;;;;;;;7.70;1.50;;;;;;;10.72;84.86;100825.52;108805;1270;24156;-82
2023/08/11 03:56:07;;;;;;;6.80;1.40;;;;;;;10.69;84.82;100826.87;108688;1273;22691;-82
2023/08/11 03:58:38;;;;;;;4.90;1.30;;;;;;;10.65;84.95;100825.25;108673;1276;23289;-82
2023/08/11 04:01:08;;;;;;;10.10;2.00;;;;;;;10.63;85.02;100832.39;108683;1276;23742;-82
2023/08/11 04:03:40;;;;;;;8.70;1.50;;;;;;;10.59;85.09;100830.83;108679;1270;22549;-81
2023/08/11 04:06:11;;;;;;;5.80;1.30;;;;;;;10.58;85.28;100834.70;108773;1276;23691;-82
2023/08/11 04:08:45;;;;;;;9.30;1.40;;;;;;;10.57;85.30;100833.20;108728;1276;22550;-81
2023/08/11 04:11:16;;;;;;;8.50;1.50;;;;;;;10.55;85.52;100839.80;108653;1276;22532;-82
2023/08/11 04:13:46;;;;;;;10.50;2.40;;;;;;;10.54;85.60;100839.36;108418;1278;22557;-81
2023/08/11 04:16:17;;;;;;;7.00;1.40;;;;;;;10.54;85.79;100837.23;108471;1274;22532;-81
2023/08/11 04:18:48;;;;;;;7.70;1.40;;;;;;;10.53;85.82;100836.45;108487;1270;22570;-82
2023/08/11 04:21:19;;;;;;;8.60;1.60;;;;;;;10.55;86.05;100838.48;108619;1278;24207;-81
2023/08/11 04:23:50;;;;;;;5.90;1.40;;;;;;;10.57;86.13;100839.61;108588;1266;22546;-81
2023/08/11 04:26:20;;;;;;;8.20;1.50;;;;;;;10.58;86.34;100842.77;108595;1278;22541;-84
2023/08/11 04:28:52;;;;;;;10.40;1.60;;;;;;;10.61;86.53;100840.77;108545;1272;22520;-80
2023/08/11 04:31:23;;;;;;;10.70;1.40;;;;;;;10.64;86.69;100842.71;108569;1278;22657;-80
2023/08/11 04:33:53;;;;;;;10.00;1.40;;;;;;;10.67;86.90;100840.90;108492;1278;22584;-81
2023/08/11 04:36:24;;;;;;;9.60;1.50;;;;;;;10.71;87.06;100842.68;108400;1273;22537;-83
2023/08/11 04:38:55;;;;;;;7.30;1.40;;;;;;;10.77;87.25;100850.34;108255;1275;22642;-81
2023/08/11 04:41:26;;;;;;;20.10;2.10;;;;;;;10.83;87.17;100857.08;108405;1260;24162;-81
2023/08/11 04:43:57;;;;;;;8.10;1.70;;;;;;;10.90;87.40;100853.60;108492;1275;24238;-82
2023/08/11 04:46:30;;;;;;;11.50;1.90;;;;;;;10.97;87.79;100857.27;108470;1278;25381;-83
2023/08/11 04:49:01;;;;;;;7.40;1.70;;;;;;;11.04;87.85;100855.56;108544;1278;22534;-83
2023/08/11 04:51:33;;;;;;;7.00;1.70;;;;;;;11.13;88.01;100857.90;108537;1278;25440;-83
2023/08/11 04:54:04;;;;;;;8.20;1.50;;;;;;;11.22;88.39;100859.96;108372;1274;22745;-83
2023/08/11 04:56:34;;;;;;;12.30;2.10;;;;;;;11.30;88.63;100864.59;108489;1271;25741;-84
2023/08/11 04:59:06;;;;;;;9.10;1.90;;;;;;;11.39;88.87;100867.06;108440;1278;22537;-84
2023/08/11 05:01:37;;;;;;;6.80;1.60;;;;;;;11.47;88.84;100861.03;108621;1278;22556;-83
2023/08/11 05:04:09;;;;;;;7.20;1.90;;;;;;;11.56;88.81;100862.05;108570;1278;22924;-84
2023/08/11 05:06:39;;;;;;;8.80;1.80;;;;;;;11.65;88.85;100860.86;108564;1278;22597;-83
2023/08/11 05:09:10;;;;;;;12.40;2.20;;;;;;;11.74;89.06;100857.84;108524;1278;22528;-84
2023/08/11 05:11:41;;;;;;;9.90;1.90;;;;;;;11.84;89.31;100863.53;108535;1276;22662;-84
2023/08/11 05:14:15;;;;;;;7.10;1.40;;;;;;;11.94;89.38;100865.38;108511;1276;22529;-84
2023/08/11 05:16:47;;;;;;;7.70;1.90;;;;;;;12.06;89.47;100867.60;108672;1276;22552;-83
2023/08/11 05:19:18;;;;;;;12.20;1.50;;;;;;;12.14;89.33;100865.16;108707;1269;22550;-84
2023/08/11 05:21:50;;;;;;;10.70;2.20;;;;;;;12.23;89.51;100864.17;108680;1270;23248;-84
2023/08/11 05:24:21;;;;;;;6.30;1.60;;;;;;;12.32;89.68;100861.81;108652;1273;25441;-84
2023/08/11 05:26:52;;;;;;;11.10;2.10;;;;;;;12.43;89.78;100862.86;108739;1270;24270;-84
2023/08/11 05:29:23;;;;;;;7.40;1.60;;;;;;;12.52;89.93;100862.25;108863;1274;22546;-84
2023/08/11 05:31:54;;;;;;;6.20;1.30;;;;;;;12.59;89.80;100862.55;108860;1276;22547;-84
2023/08/11 05:34:24;;;;;;;7.40;1.60;;;;;;;12.68;89.50;100860.95;108800;1265;22514;-84
2023/08/11 05:36:55;;;;;;;15.50;2.00;;;;;;;12.78;89.91;100864.40;108839;1273;22643;-84
2023/08/11 05:39:28;;;;;;;9.10;1.30;;;;;;;12.90;89.93;100864.31;108737;1265;22653;-84
2023/08/11 05:42:00;;;;;;;8.90;1.40;;;;;;;13.02;89.29;100867.54;108687;1276;22577;-84
2023/08/11 05:44:31;;;;;;;6.80;1.40;;;;;;;13.12;89.29;100869.94;108788;1269;22565;-84
2023/08/11 05:47:02;;;;;;;5.40;1.10;;;;;;;13.24;89.74;100866.45;108626;1269;26095;-84
2023/08/11 05:49:33;;;;;;;9.50;1.30;;;;;;;13.36;89.32;100868.75;108678;1276;22954;-84
2023/08/11 05:52:04;;;;;;;6.90;1.20;;;;;;;13.47;89.18;100867.85;108580;1269;25230;-84
2023/08/11 05:54:35;;;;;;;8.20;1.30;;;;;;;13.59;89.61;100869.00;108629;1269;24279;-84
2023/08/11 05:57:08;;;;;;;10.20;1.70;;;;;;;13.72;89.24;100870.34;108665;1273;22517;-85
2023/08/11 05:59:38;;;;;;;8.50;1.20;;;;;;;13.86;89.71;100869.19;108589;1270;25224;-84
2023/08/11 06:02:09;;;;;;;6.30;1.40;;;;;;;14.01;89.47;100871.80;108723;1269;23859;-83
2023/08/11 06:04:42;;;;;;;8.10;1.40;;;;;;;14.12;88.58;100867.33;108761;1273;22560;-84
2023/08/11 06:07:13;;;;;;;6.20;1.40;;;;;;;14.21;88.73;100863.83;108797;1270;22569;-84
2023/08/11 06:09:45;;;;;;;6.80;1.40;;;;;;;14.31;88.83;100859.95;108797;1270;25421;-84
2023/08/11 06:12:16;;;;;;;8.90;1.30;;;;;;;14.39;88.35;100859.16;108851;1270;22556;-84
2023/08/11 06:14:47;;;;;;;12.00;2.90;;;;;;;14.48;88.46;100856.86;109320;1276;22486;-84
2023/08/11 06:17:18;;;;;;;7.90;1.20;;;;;;;14.60;88.91;100863.77;109376;1276;22577;-84
2023/08/11 06:19:49;;;;;;;7.10;1.40;;;;;;;14.74;87.96;100864.25;108895;1276;22565;-84
2023/08/11 06:22:20;;;;;;;5.90;1.10;;;;;;;14.86;87.79;100867.35;108765;1270;23231;-83
2023/08/11 06:24:50;;;;;;;8.40;1.30;;;;;;;14.98;87.54;100873.98;108742;1276;25290;-83
2023/08/11 06:27:21;;;;;;;10.50;1.40;;;;;;;15.11;86.88;100878.88;108791;1269;22526;-83
2023/08/11 06:29:53;;;;;;;5.10;1.20;;;;;;;15.28;87.17;100875.27;108656;1272;22965;-84
2023/08/11 06:32:24;;;;;;;6.70;1.20;;;;;;;15.45;86.13;100881.19;108699;1269;22553;-84
2023/08/11 06:34:55;;;;;;;5.60;0.90;;;;;;;15.56;84.86;100883.13;108769;1276;22589;-84
2023/08/11 06:37:25;;;;;;;5.60;1.10;;;;;;;15.64;83.99;100881.06;108725;1276;22574;-82
2023/08/11 06:39:58;;;;;;;6.30;1.20;;;;;;;15.72;83.72;100888.34;108791;1269;22599;-84
2023/08/11 06:42:29;;;;;;;6.60;1.00;;;;;;;15.79;83.38;100888.35;108686;1270;22554;-82
2023/08/11 06:44:59;;;;;;;6.30;1.10;;;;;;;15.83;83.10;100889.61;108640;1270;23709;-82
2023/08/11 06:47:31;;;;;;;7.90;1.10;;;;;;;15.87;82.76;100890.11;108580;1276;23839;-83
2023/08/11 06:50:02;;;;;;;6.50;0.90;;;;;;;15.95;82.27;100890.27;108523;1253;22570;-83
2023/08/11 06:52:32;;;;;;;5.90;1.20;;;;;;;16.02;81.96;100895.50;108473;1271;22517;-82
2023/08/11 06:55:05;;;;;;;5.90;1.10;;;;;;;16.09;81.48;100898.31;108586;1266;22485;-83
2023/08/11 06:57:36;;;;;;;6.70;1.20;;;;;;;16.19;81.58;100901.96;108640;1276;26299;-83
2023/08/11 07:00:08;;;;;;;9.80;1.10;;;;;;;16.30;81.58;100901.42;108643;1273;24033;-82
2023/08/11 07:02:39;;;;;;;8.60;1.20;;;;;;;16.38;81.02;100899.71;108619;1276;22558;-83
2023/08/11 07:05:10;;;;;;;4.80;1.00;;;;;;;16.45;79.67;100897.41;108566;1276;23940;-82
2023/08/11 07:07:41;;;;;;;7.60;1.20;;;;;;;16.51;79.86;100894.80;108512;1276;22576;-82
2023/08/11 07:10:13;;;;;;;6.10;1.10;;;;;;;16.60;79.82;100890.40;108668;1276;25563;-82
2023/08/11 07:12:44;;;;;;;5.50;1.00;;;;;;;16.68;79.60;100891.92;108734;1270;22587;-82
2023/08/11 07:15:16;;;;;;;6.20;1.10;;;;;;;16.79;79.45;100891.04;108715;1276;22770;-82
2023/08/11 07:17:47;;;;;;;5.40;1.00;;;;;;;16.89;78.33;100897.17;108780;1276;22530;-82
2023/08/11 07:20:19;;;;;;;6.70;1.20;;;;;;;16.97;78.12;100902.51;108780;1276;23250;-82
2023/08/11 07:22:50;;;;;;;12.20;1.00;;;;;;;17.08;77.76;100904.02;108698;1276;22546;-82
2023/08/11 07:25:21;;;;;;;5.10;1.20;;;;;;;17.19;77.95;100903.34;108736;1276;22546;-82
2023/08/11 07:27:52;;;;;;;6.30;1.00;;;;;;;17.32;77.62;100902.80;108689;1273;23418;-82
2023/08/11 07:30:23;;;;;;;7.20;1.30;;;;;;;17.44;77.02;100901.95;108794;1269;22560;-82
2023/08/11 07:32:54;;;;;;;8.60;1.10;;;;;;;17.50;76.11;100898.84;108729;1276;23403;-82
2023/08/11 07:35:25;;;;;;;8.30;1.10;;;;;;;17.57;75.59;100900.30;108733;1276;23852;-82
2023/08/11 07:37:57;;;;;;;9.20;1.10;;;;;;;17.62;75.27;100901.64;108736;1276;25301;-82
2023/08/11 07:40:29;;;;;;;7.90;1.00;;;;;;;17.71;75.36;100898.98;108830;1276;22588;-82
2023/08/11 07:43:00;;;;;;;8.30;1.20;;;;;;;17.81;75.59;100902.63;108793;1276;22632;-82
2023/08/11 07:45:32;;;;;;;5.20;1.00;;;;;;;17.92;74.02;100905.14;108713;1263;23911;-82
2023/08/11 07:48:05;;;;;;;4.90;0.90;;;;;;;17.98;73.44;100909.30;108689;1276;24360;-82
2023/08/11 07:50:38;;;;;;;3.90;1.00;;;;;;;18.04;73.06;100911.87;108752;1276;22553;-82
2023/08/11 07:53:09;;;;;;;9.00;1.60;;;;;;;18.10;73.24;100909.65;108649;1276;23961;-82
2023/08/11 07:55:40;;;;;;;5.60;0.80;;;;;;;18.17;72.40;100915.30;108581;1269;22540;-82
2023/08/11 07:58:13;;;;;;;7.60;0.90;;;;;;;18.24;72.34;100916.27;108565;1273;22616;-82
2023/08/11 08:00:45;;;;;;;5.90;1.00;;;;;;;18.31;71.62;100917.84;108585;1276;24309;-82
2023/08/11 08:03:17;;;;;;;9.80;1.60;;;;;;;18.35;70.92;100915.67;108535;1276;22517;-82
2023/08/11 08:05:49;;;;;;;6.50;1.00;;;;;;;18.39;70.96;100915.15;108513;1265;22544;-82
2023/08/11 08:08:20;;;;;;;13.20;1.00;;;;;;;18.45;70.94;100913.37;108563;1253;25908;-82
2023/08/11 08:10:53;;;;;;;8.80;1.10;;;;;;;18.52;70.40;100911.70;108559;1276;22557;-82
2023/08/11 08:13:25;;;;;;;8.80;1.00;;;;;;;18.56;70.45;100910.66;108390;1276;22549;-83
2023/08/11 08:15:56;;;;;;;5.30;1.10;;;;;;;18.65;70.38;100909.30;108579;1276;23326;-83
2023/08/11 08:18:27;;;;;;;5.80;0.90;;;;;;;18.72;69.55;100915.91;108675;1276;22956;-82
2023/08/11 08:20:57;;;;;;;9.50;0.80;;;;;;;18.77;69.57;100913.06;108704;1276;22536;-83
2023/08/11 08:23:29;;;;;;;9.70;1.00;;;;;;;18.83;68.94;100911.56;108844;1267;22628;-83
2023/08/11 08:26:00;;;;;;;9.90;1.50;;;;;;;18.88;68.63;100912.77;108649;1276;24760;-82
2023/08/11 08:28:31;;;;;;;7.30;0.90;;;;;;;18.94;68.70;100913.30;107959;1268;22544;-82
2023/08/11 08:31:03;;;;;;;6.10;0.80;;;;;;;19.01;68.22;100915.08;108787;1272;24725;-82
2023/08/11 08:33:34;;;;;;;5.70;0.90;;;;;;;19.08;68.22;100911.90;108761;1269;22563;-83
2023/08/11 08:36:05;;;;;;;5.60;0.90;;;;;;;19.17;67.69;100914.95;108717;1269;22660;-82
2023/08/11 08:38:36;;;;;;;4.60;0.80;;;;;;;19.23;67.83;100913.33;108738;1276;22565;-84
2023/08/11 08:41:10;;;;;;;6.40;0.90;;;;;;;19.30;67.70;100910.05;108749;1276;24201;-85
2023/08/11 08:43:41;;;;;;;10.20;0.80;;;;;;;19.38;66.93;100915.16;108727;1276;23427;-84
2023/08/11 08:46:14;;;;;;;4.90;1.00;;;;;;;19.49;67.31;100911.45;108774;1273;22550;-84
2023/08/11 08:48:56;;;;;;;7.80;1.30;;;;;;;19.57;66.42;100911.39;108687;1276;22522;-84
2023/08/11 08:51:36;;;;;;;7.90;1.10;;;;;;;19.63;65.53;100913.60;108614;1272;23208;-84
2023/08/11 08:54:09;;;;;;;;;;;;;;;19.71;65.29;100920.20;108732;1276;22548;-84
2023/08/11 08:56:40;;;;;;;9.30;1.00;;;;;;;19.74;65.14;100916.45;108788;1269;23729;-84
2023/08/11 08:59:11;;;;;;;6.30;1.00;;;;;;;19.81;65.08;100914.70;108757;1272;22461;-84
2023/08/11 09:01:44;;;;;;;6.80;0.90;;;;;;;19.86;63.33;100913.27;108693;1272;22528;-84
2023/08/11 09:04:16;;;;;;;3.90;1.20;;;;;;;19.92;63.92;100913.95;108641;1276;22570;-82
2023/08/11 09:06:49;;;;;;;7.30;0.90;;;;;;;19.99;64.09;100913.37;108636;1269;22564;-83
2023/08/11 09:09:20;;;;;;;8.80;1.00;;;;;;;20.07;63.23;100912.84;108664;1269;22586;-83
2023/08/11 09:11:53;;;;;;;6.30;0.90;;;;;;;20.12;63.23;100914.94;108735;1270;22568;-85
2023/08/11 09:14:24;;;;;;;7.10;1.10;;;;;;;20.21;62.78;100916.54;109030;1269;22761;-86
2023/08/11 09:16:59;;;;;;;7.70;0.80;;;;;;;20.25;62.61;100912.23;108953;1272;22633;-87
2023/08/11 09:19:36;;;;;;;4.20;0.80;;;;;;;20.30;62.40;100909.91;109005;1267;22566;-87
2023/08/11 09:22:13;;;;;;;6.80;0.90;;;;;;;20.38;62.78;100908.59;108988;1272;22613;-86
2023/08/11 09:24:48;;;;;;;7.40;1.00;;;;;;;20.50;62.92;100903.47;109023;1269;22516;-85
2023/08/11 09:27:20;;;;;;;8.10;0.90;;;;;;;20.60;62.88;100902.33;110337;1274;22422;-83
2023/08/11 09:29:56;;;;;;;7.00;0.70;;;;;;;20.70;62.33;100901.27;110301;1272;22150;-82
2023/08/11 09:32:28;;;;;;;4.50;0.90;;;;;;;20.78;62.28;100903.35;110312;1276;23641;-83
2023/08/11 09:35:02;;;;;;;8.00;0.60;;;;;;;20.86;62.13;100898.91;110302;1273;22275;-82
2023/08/11 09:37:34;;;;;;;4.40;0.80;;;;;;;20.93;61.54;100904.17;110341;1269;23145;-83
2023/08/11 09:40:08;;;;;;;5.70;1.00;;;;;;;20.97;61.06;100907.02;110363;1272;22141;-83
2023/08/11 09:42:42;;;;;;;5.90;0.90;;;;;;;21.00;60.39;100904.77;110351;1270;22353;-83
2023/08/11 09:45:14;;;;;;;8.00;1.00;;;;;;;21.04;60.74;100906.39;110342;1276;22326;-83
2023/08/11 09:47:45;;;;;;;3.70;0.80;;;;;;;21.11;60.37;100909.08;110318;1270;22301;-82
2023/08/11 09:50:16;;;;;;;6.60;1.00;;;;;;;21.19;60.30;100904.40;110320;1272;22885;-82
2023/08/11 09:52:48;;;;;;;5.20;0.90;;;;;;;21.28;60.11;100906.89;110349;1269;22337;-82
2023/08/11 09:55:21;;;;;;;7.30;0.90;;;;;;;21.37;60.16;100909.60;110374;1276;22230;-82
2023/08/11 09:57:53;;;;;;;7.50;0.80;;;;;;;21.44;59.41;100914.96;110403;1272;22207;-83
2023/08/11 10:00:25;;;;;;;5.80;1.10;;;;;;;21.50;59.37;100910.43;110403;1272;22173;-83
2023/08/11 10:03:02;;;;;;;7.00;0.90;;;;;;;21.57;58.58;100909.36;110334;1276;22346;-83
2023/08/11 10:05:35;;;;;;;4.50;0.80;;;;;;;21.62;58.01;100910.02;110306;1269;22193;-83
2023/08/11 10:08:10;;;;;;;3.70;0.70;;;;;;;21.67;57.58;100906.62;110329;1276;22941;-83
2023/08/11 10:10:42;;;;;;;4.50;0.70;;;;;;;21.72;57.10;100908.91;110335;1276;22629;-83
2023/08/11 10:13:20;;;;;;;3.10;0.70;;;;;;;21.76;55.57;100910.08;110342;1265;22372;-83
2023/08/11 10:15:53;;;;;;;5.50;0.80;;;;;;;21.82;55.03;100911.61;110333;1276;22253;-83
2023/08/11 10:18:25;;;;;;;3.80;0.70;;;;;;;21.87;54.81;100905.23;110345;1269;22431;-82
2023/08/11 10:20:57;;;;;;;5.60;0.60;;;;;;;21.93;53.83;100911.65;110307;1276;22179;-82
2023/08/11 10:23:29;;;;;;;2.30;0.60;;;;;;;21.98;54.07;100908.00;110352;1270;22343;-83
2023/08/11 10:26:01;;;;;;;3.20;0.60;;;;;;;22.07;54.37;100904.84;110346;1276;22174;-83
2023/08/11 10:28:33;;;;;;;4.00;0.60;;;;;;;22.12;53.45;100903.15;110350;1266;22365;-83
2023/08/11 10:31:07;;;;;;;3.10;0.80;;;;;;;22.17;52.47;100899.23;110329;1277;22205;-83
2023/08/11 10:33:38;;;;;;;3.30;0.80;;;;;;;22.19;51.73;100899.23;110359;1276;23565;-83
2023/08/11 10:36:09;;;;;;;4.50;0.80;;;;;;;22.17;51.67;100900.31;110319;1276;22425;-83
2023/08/11 10:38:41;;;;;;;5.10;0.80;;;;;;;22.15;52.01;100902.79;110165;1276;22201;-83
2023/08/11 10:41:17;;;;;;;4.80;0.70;;;;;;;22.18;51.83;100901.08;110358;1272;22203;-83
2023/08/11 10:43:50;;;;;;;6.30;0.90;;;;;;;22.21;51.53;100896.58;110162;1272;22206;-83
2023/08/11 10:46:26;;;;;;;3.20;0.70;;;;;;;22.26;51.13;100894.84;110317;1277;22520;-83
2023/08/11 10:48:59;;;;;;;4.40;0.80;;;;;;;22.33;51.36;100891.09;110319;1273;22203;-83
2023/08/11 10:51:32;;;;;;;5.40;1.00;;;;;;;22.39;50.91;100893.76;110350;1272;22326;-84
2023/08/11 10:54:12;;;;;;;4.50;0.90;;;;;;;22.43;51.29;100889.84;110327;1269;22305;-84
2023/08/11 10:56:43;;;;;;;;;;;;;;;22.53;51.07;100894.05;110356;1276;22440;-82
2023/08/11 10:59:18;;;;;;;6.70;0.80;;;;;;;22.66;51.08;100892.02;110319;1272;22334;-84
2023/08/11 11:01:51;;;;;;;6.60;1.00;;;;;;;22.77;51.10;100894.52;110303;1271;22228;-83
2023/08/11 11:04:23;;;;;;;6.40;0.90;;;;;;;22.92;51.23;100891.00;110329;1277;22157;-83
2023/08/11 11:06:57;;;;;;;5.70;0.90;;;;;;;23.10;50.71;100898.30;110340;1272;22149;-83
2023/08/11 11:09:29;;;;;;;5.00;0.90;;;;;;;23.20;49.48;100892.42;110302;1275;22335;-83
2023/08/11 11:12:00;;;;;;;5.90;0.90;;;;;;;23.21;48.81;100886.58;110320;1273;23224;-84
2023/08/11 11:14:32;;;;;;;5.50;0.90;;;;;;;23.25;49.06;100882.83;110364;1277;22169;-83
2023/08/11 11:17:03;;;;;;;5.00;0.90;;;;;;;23.26;48.60;100883.41;110304;1277;22322;-83
2023/08/11 11:19:36;;;;;;;3.10;0.80;;;;;;;23.24;48.87;100888.59;110339;1276;22601;-84
2023/08/11 11:22:09;;;;;;;5.60;1.10;;;;;;;23.23;48.74;100889.20;110332;1269;22824;-83
2023/08/11 11:24:41;;;;;;;4.20;0.70;;;;;;;23.23;48.77;100890.02;110332;1276;22191;-81
2023/08/11 11:27:13;;;;;;;6.30;0.80;;;;;;;23.27;48.52;100891.63;110315;1277;22225;-81
2023/08/11 11:29:45;;;;;;;5.10;1.00;;;;;;;23.30;47.86;100891.09;110324;1276;22255;-82
2023/08/11 11:32:17;;;;;;;4.10;0.80;;;;;;;23.28;47.61;100888.34;110298;1275;22218;-84
2023/08/11 11:34:49;;;;;;;4.40;0.60;;;;;;;23.26;47.56;100888.65;110283;1273;22154;-83
2023/08/11 11:37:20;;;;;;;8.00;1.00;;;;;;;23.23;47.27;100884.36;110339;1276;22203;-84